createdAt,value
2018-06-11T00:00:59.391Z,11.77
2018-06-11T00:03:27.528Z,11.27
2018-06-11T00:05:55.667Z,11.60
2018-06-11T00:08:23.802Z,11.63
2018-06-11T00:10:51.949Z,13.23
2018-06-11T00:13:20.073Z,12.67
2018-06-11T00:15:48.194Z,12.97
2018-06-11T00:18:16.332Z,12.27
2018-06-11T00:20:44.475Z,12.60
2018-06-11T00:23:12.606Z,11.97
2018-06-11T00:25:40.742Z,13.10
2018-06-11T00:28:08.925Z,13.20
2018-06-11T00:30:37.067Z,11.60
2018-06-11T00:33:05.199Z,12.40
2018-06-11T00:35:33.335Z,11.07
2018-06-11T00:38:01.503Z,13.10
2018-06-11T00:40:29.629Z,12.83
2018-06-11T00:42:57.779Z,12.57
2018-06-11T00:45:25.907Z,13.23
2018-06-11T00:47:54.029Z,13.90
2018-06-11T00:50:22.164Z,12.87
2018-06-11T00:52:50.309Z,14.03
2018-06-11T00:55:18.471Z,14.00
2018-06-11T00:57:46.603Z,11.93
2018-06-11T01:00:14.765Z,14.50
2018-06-11T01:02:42.951Z,12.80
2018-06-11T01:05:11.171Z,12.60
2018-06-11T01:07:39.292Z,14.37
2018-06-11T01:10:07.567Z,13.03
2018-06-11T01:12:35.710Z,13.37
2018-06-11T01:15:03.897Z,13.40
2018-06-11T01:17:32.025Z,14.23
2018-06-11T01:20:00.420Z,14.50
2018-06-11T01:22:28.623Z,13.70
2018-06-11T01:24:56.766Z,13.57
2018-06-11T01:27:24.911Z,13.50
2018-06-11T01:29:53.072Z,12.97
2018-06-11T01:32:21.234Z,14.43
2018-06-11T01:34:49.381Z,12.10
2018-06-11T01:37:17.567Z,13.80
2018-06-11T01:39:45.752Z,12.90
2018-06-11T01:42:13.971Z,12.80
2018-06-11T01:44:42.162Z,13.30
2018-06-11T01:47:10.330Z,15.13
2018-06-11T01:49:38.471Z,14.47
2018-06-11T01:52:06.643Z,14.00
2018-06-11T01:54:34.812Z,14.97
2018-06-11T01:57:03.002Z,13.83
2018-06-11T01:59:31.150Z,12.40
2018-06-11T02:01:59.303Z,15.60
2018-06-11T02:04:27.467Z,13.10
2018-06-11T02:06:55.603Z,14.20
2018-06-11T02:09:23.777Z,13.33
2018-06-11T02:11:51.930Z,14.60
2018-06-11T02:14:20.079Z,13.70
2018-06-11T02:16:48.243Z,14.20
2018-06-11T02:19:16.413Z,13.60
2018-06-11T02:21:44.592Z,14.00
2018-06-11T02:24:12.742Z,13.93
2018-06-11T02:26:40.885Z,15.50
2018-06-11T02:29:09.029Z,15.40
2018-06-11T02:31:37.172Z,16.13
2018-06-11T02:34:05.321Z,14.40
2018-06-11T02:36:33.520Z,15.10
2018-06-11T02:39:01.668Z,16.50
2018-06-11T02:41:29.802Z,15.40
2018-06-11T02:43:58.112Z,14.40
2018-06-11T02:46:26.287Z,14.03
2018-06-11T02:48:54.488Z,13.60
2018-06-11T02:51:22.657Z,14.00
2018-06-11T02:53:50.829Z,15.77
2018-06-11T02:56:18.996Z,15.43
2018-06-11T02:58:47.166Z,16.53
2018-06-11T03:01:15.304Z,15.97
2018-06-11T03:03:43.475Z,16.00
2018-06-11T03:06:11.634Z,17.80
2018-06-11T03:08:39.770Z,16.17
2018-06-11T03:11:07.943Z,15.50
2018-06-11T03:13:36.115Z,16.50
2018-06-11T03:16:04.288Z,16.70
2018-06-11T03:18:32.798Z,18.70
2018-06-11T03:21:00.976Z,16.17
2018-06-11T03:23:29.172Z,17.20
2018-06-11T03:25:57.303Z,14.67
2018-06-11T03:28:25.468Z,17.77
2018-06-11T03:30:53.627Z,16.37
2018-06-11T03:33:21.793Z,17.37
2018-06-11T03:35:49.977Z,15.17
2018-06-11T03:38:18.133Z,16.47
2018-06-11T03:40:46.280Z,15.90
2018-06-11T03:43:14.436Z,15.50
2018-06-11T03:45:42.618Z,16.50
2018-06-11T03:48:10.764Z,17.90
2018-06-11T03:50:38.915Z,17.37
2018-06-11T03:53:07.064Z,16.10
2018-06-11T03:55:35.220Z,17.47
2018-06-11T03:58:03.381Z,18.57
2018-06-11T04:00:31.560Z,15.47
2018-06-11T04:02:59.759Z,17.10
2018-06-11T04:05:27.911Z,16.90
2018-06-11T04:07:56.056Z,16.93
2018-06-11T04:10:24.199Z,16.27
2018-06-11T04:12:52.344Z,17.93
2018-06-11T04:15:20.480Z,15.03
2018-06-11T04:17:48.643Z,19.07
2018-06-11T04:20:16.779Z,19.33
2018-06-11T04:22:44.930Z,15.13
2018-06-11T04:25:13.089Z,15.30
2018-06-11T04:27:41.351Z,17.60
2018-06-11T04:30:09.503Z,16.30
2018-06-11T04:32:37.692Z,15.43
2018-06-11T04:35:05.856Z,16.43
2018-06-11T04:37:34.071Z,15.67
2018-06-11T04:40:02.250Z,15.30
2018-06-11T04:42:30.409Z,15.43
2018-06-11T04:44:58.617Z,17.17
2018-06-11T04:47:26.743Z,15.50
2018-06-11T04:49:54.912Z,16.87
2018-06-11T04:52:23.055Z,15.73
2018-06-11T04:54:51.203Z,15.27
2018-06-11T04:57:19.472Z,15.03
2018-06-11T04:59:47.592Z,15.50
2018-06-11T05:02:15.758Z,16.27
2018-06-11T05:04:43.924Z,16.43
2018-06-11T05:07:12.092Z,15.77
2018-06-11T05:09:40.332Z,13.43
2018-06-11T05:12:08.483Z,14.27
2018-06-11T05:14:36.649Z,16.07
2018-06-11T05:17:04.795Z,16.43
2018-06-11T05:19:32.982Z,16.97
2018-06-11T05:22:01.144Z,15.00
2018-06-11T05:24:29.293Z,16.23
2018-06-11T05:26:57.464Z,14.50
2018-06-11T05:29:25.664Z,15.47
2018-06-11T05:31:53.833Z,16.60
2018-06-11T05:34:22.041Z,15.80
2018-06-11T05:36:50.191Z,13.23
2018-06-11T05:39:18.339Z,13.93
2018-06-11T05:41:46.515Z,15.67
2018-06-11T05:44:14.670Z,16.73
2018-06-11T05:46:42.824Z,16.30
2018-06-11T05:49:10.978Z,14.93
2018-06-11T05:51:39.160Z,14.10
2018-06-11T05:54:07.307Z,14.30
2018-06-11T05:56:35.471Z,13.60
2018-06-11T05:59:03.394Z,15.63
2018-06-11T06:01:31.585Z,14.20
2018-06-11T06:03:59.770Z,15.37
2018-06-11T06:06:27.972Z,14.27
2018-06-11T06:08:56.117Z,13.90
2018-06-11T06:11:24.267Z,14.57
2018-06-11T06:13:52.447Z,14.47
2018-06-11T06:16:20.596Z,15.87
2018-06-11T06:18:48.792Z,19.77
2018-06-11T06:21:16.989Z,15.70
2018-06-11T06:23:45.214Z,14.67
2018-06-11T06:26:13.388Z,15.30
2018-06-11T06:28:41.561Z,14.53
2018-06-11T06:31:09.715Z,15.70
2018-06-11T06:33:37.885Z,13.93
2018-06-11T06:36:06.074Z,13.07
2018-06-11T06:38:34.302Z,15.07
2018-06-11T06:41:02.467Z,15.90
2018-06-11T06:43:30.716Z,15.00
2018-06-11T06:45:58.887Z,13.80
2018-06-11T06:48:27.083Z,13.83
2018-06-11T06:50:55.282Z,14.77
2018-06-11T06:53:23.470Z,14.67
2018-06-11T06:55:51.611Z,14.60
2018-06-11T06:58:19.793Z,15.20
2018-06-11T07:00:47.974Z,17.67
2018-06-11T07:03:16.131Z,17.00
2018-06-11T07:05:44.275Z,15.50
2018-06-11T07:08:12.457Z,16.23
2018-06-11T07:10:40.587Z,14.67
2018-06-11T07:13:08.963Z,14.47
2018-06-11T07:15:37.130Z,15.13
2018-06-11T07:18:05.280Z,15.30
2018-06-11T07:20:33.452Z,14.60
2018-06-11T07:23:01.646Z,15.50
2018-06-11T07:25:29.822Z,13.77
2018-06-11T07:27:57.958Z,17.10
2018-06-11T07:30:26.190Z,14.97
2018-06-11T07:32:54.351Z,15.77
2018-06-11T07:35:22.533Z,14.17
2018-06-11T07:37:50.736Z,12.43
2018-06-11T07:40:18.905Z,14.70
2018-06-11T07:42:47.049Z,14.57
2018-06-11T07:45:15.263Z,14.40
2018-06-11T07:47:43.416Z,14.37
2018-06-11T07:50:11.621Z,14.33
2018-06-11T07:52:39.768Z,14.13
2018-06-11T07:55:07.929Z,15.63
2018-06-11T07:57:36.100Z,14.93
2018-06-11T08:00:04.426Z,13.47
2018-06-11T08:02:32.545Z,14.50
2018-06-11T08:05:00.724Z,14.57
2018-06-11T08:07:28.923Z,15.30
2018-06-11T08:09:57.093Z,16.87
2018-06-11T08:12:25.291Z,13.73
2018-06-11T08:14:53.575Z,14.77
2018-06-11T08:17:21.752Z,14.40
2018-06-11T08:19:49.911Z,13.20
2018-06-11T08:22:18.086Z,13.70
2018-06-11T08:24:46.229Z,14.00
2018-06-11T08:27:14.394Z,14.30
2018-06-11T08:29:42.550Z,16.00
2018-06-11T08:32:10.839Z,15.53
2018-06-11T08:34:38.967Z,13.47
2018-06-11T08:37:07.120Z,13.23
2018-06-11T08:39:35.340Z,14.43
2018-06-11T08:42:03.492Z,11.67
2018-06-11T08:44:31.656Z,14.27
2018-06-11T08:46:59.829Z,14.50
2018-06-11T08:49:27.964Z,15.00
2018-06-11T08:51:56.177Z,14.27
2018-06-11T08:54:24.336Z,15.60
2018-06-11T08:56:52.546Z,13.83
2018-06-11T08:59:20.687Z,14.40
2018-06-11T09:01:48.864Z,14.73
2018-06-11T09:04:17.033Z,15.30
2018-06-11T09:06:45.187Z,14.70
2018-06-11T09:09:13.329Z,13.30
2018-06-11T09:11:41.490Z,14.00
2018-06-11T09:14:09.633Z,15.47
2018-06-11T09:16:37.855Z,14.17
2018-06-11T09:19:06.055Z,14.30
2018-06-11T09:21:34.216Z,15.00
2018-06-11T09:24:02.744Z,16.60
2018-06-11T09:26:30.915Z,13.90
2018-06-11T09:28:59.092Z,16.47
2018-06-11T09:31:27.256Z,13.50
2018-06-11T09:33:55.409Z,14.27
2018-06-11T09:36:23.555Z,12.83
2018-06-11T09:38:51.504Z,15.50
2018-06-11T09:41:19.627Z,13.77
2018-06-11T09:43:47.813Z,13.70
2018-06-11T09:46:15.920Z,15.13
2018-06-11T09:48:44.084Z,14.00
2018-06-11T09:51:12.239Z,14.47
2018-06-11T09:53:40.399Z,13.47
2018-06-11T09:56:08.548Z,13.40
2018-06-11T09:58:36.712Z,13.37
2018-06-11T10:01:04.900Z,15.17
2018-06-11T10:03:33.071Z,12.97
2018-06-11T10:06:01.267Z,14.07
2018-06-11T10:08:29.432Z,13.20
2018-06-11T10:10:57.613Z,14.30
2018-06-11T10:13:25.791Z,19.73
2018-06-11T10:15:53.945Z,15.30
2018-06-11T10:18:22.094Z,14.83
2018-06-11T10:20:50.274Z,14.30
2018-06-11T10:23:18.405Z,14.87
2018-06-11T10:25:46.564Z,11.27
2018-06-11T10:28:14.720Z,14.27
2018-06-11T10:30:42.874Z,13.03
2018-06-11T10:33:11.012Z,14.20
2018-06-11T10:35:39.179Z,15.07
2018-06-11T10:38:07.366Z,12.63
2018-06-11T10:40:35.500Z,14.13
2018-06-11T10:43:03.665Z,13.23
2018-06-11T10:45:31.812Z,12.80
2018-06-11T10:47:59.719Z,12.50
2018-06-11T10:50:27.853Z,13.43
2018-06-11T10:52:55.988Z,13.73
2018-06-11T10:55:24.169Z,13.00
2018-06-11T10:57:52.311Z,16.60
2018-06-11T11:00:20.459Z,15.80
2018-06-11T11:02:48.624Z,13.80
2018-06-11T11:05:16.776Z,13.03
2018-06-11T11:07:44.934Z,13.10
2018-06-11T11:10:13.095Z,12.93
2018-06-11T11:12:41.323Z,12.03
2018-06-11T11:15:09.469Z,15.17
2018-06-11T11:17:37.605Z,13.40
2018-06-11T11:20:05.846Z,13.20
2018-06-11T11:22:33.984Z,12.30
2018-06-11T11:25:02.148Z,12.33
2018-06-11T11:27:30.312Z,13.33
2018-06-11T11:29:58.467Z,11.83
2018-06-11T11:32:26.682Z,13.57
2018-06-11T11:34:54.888Z,12.40
2018-06-11T11:37:23.040Z,11.73
2018-06-11T11:39:51.191Z,11.40
2018-06-11T11:42:19.331Z,12.97
2018-06-11T11:44:47.495Z,11.70
2018-06-11T11:47:15.656Z,11.93
2018-06-11T11:49:43.817Z,10.63
2018-06-11T11:52:11.977Z,11.70
2018-06-11T11:54:40.152Z,9.97
2018-06-11T11:57:08.304Z,10.70
2018-06-11T11:59:36.475Z,11.90
2018-06-11T12:02:04.658Z,23.13
2018-06-11T12:04:32.795Z,10.77
2018-06-11T12:07:00.948Z,10.83
2018-06-11T12:09:29.113Z,10.57
2018-06-11T12:11:57.280Z,11.40
2018-06-11T12:14:25.481Z,11.80
2018-06-11T12:16:53.610Z,11.83
2018-06-11T12:19:21.767Z,12.93
2018-06-11T12:21:49.895Z,11.97
2018-06-11T12:24:18.039Z,11.27
2018-06-11T12:26:46.198Z,11.10
2018-06-11T12:29:14.623Z,10.30
2018-06-11T12:31:42.834Z,10.53
2018-06-11T12:34:10.983Z,9.83
2018-06-11T12:36:39.135Z,11.83
2018-06-11T12:39:08.371Z,11.20
2018-06-11T12:41:36.565Z,11.30
2018-06-11T12:44:04.762Z,10.57
2018-06-11T12:46:32.957Z,13.20
2018-06-11T12:49:01.137Z,11.03
2018-06-11T12:51:29.451Z,10.60
2018-06-11T12:53:57.742Z,10.20
2018-06-11T12:56:25.692Z,11.30
2018-06-11T12:58:53.829Z,9.83
2018-06-11T13:01:21.975Z,12.57
2018-06-11T13:03:50.135Z,11.90
2018-06-11T13:06:18.336Z,11.93
2018-06-11T13:08:46.660Z,11.90
2018-06-11T13:11:14.865Z,10.67
2018-06-11T13:13:43.024Z,10.93
2018-06-11T13:16:11.196Z,11.50
2018-06-11T13:18:39.377Z,12.53
2018-06-11T13:21:07.521Z,10.83
2018-06-11T13:23:35.717Z,11.37
2018-06-11T13:26:03.906Z,11.90
2018-06-11T13:28:32.083Z,11.00
2018-06-11T13:31:00.271Z,12.20
2018-06-11T13:33:28.412Z,11.50
2018-06-11T13:35:56.565Z,12.13
2018-06-11T13:38:24.736Z,14.27
2018-06-11T13:40:52.894Z,12.60
2018-06-11T13:43:21.060Z,12.80
2018-06-11T13:45:49.219Z,11.10
2018-06-11T13:48:17.449Z,12.53
2018-06-11T13:50:45.437Z,11.33
2018-06-11T13:53:13.604Z,12.97
2018-06-11T13:55:41.776Z,12.50
2018-06-11T13:58:09.714Z,12.57
2018-06-11T14:00:37.893Z,11.87
2018-06-11T14:03:06.095Z,10.10
2018-06-11T14:05:34.254Z,12.03
2018-06-11T14:08:02.412Z,12.17
2018-06-11T14:10:30.703Z,10.10
2018-06-11T14:12:58.851Z,11.47
2018-06-11T14:15:27.060Z,12.60
2018-06-11T14:17:55.235Z,11.73
2018-06-11T14:20:23.465Z,13.67
2018-06-11T14:22:51.700Z,11.10
2018-06-11T14:25:19.847Z,11.33
2018-06-11T14:27:47.996Z,12.70
2018-06-11T14:30:16.176Z,12.80
2018-06-11T14:32:44.352Z,10.10
2018-06-11T14:35:12.547Z,12.97
2018-06-11T14:37:40.719Z,10.93
2018-06-11T14:40:08.879Z,10.50
2018-06-11T14:42:37.027Z,13.80
2018-06-11T14:45:05.280Z,12.27
2018-06-11T14:47:33.489Z,11.40
2018-06-11T14:50:01.666Z,13.47
2018-06-11T14:52:29.841Z,12.77
2018-06-11T14:54:58.044Z,14.20
2018-06-11T14:57:26.283Z,12.40
2018-06-11T14:59:54.476Z,12.00
2018-06-11T15:02:22.675Z,12.60
2018-06-11T15:04:50.912Z,13.53
2018-06-11T15:07:19.091Z,11.87
2018-06-11T15:09:47.278Z,13.60
2018-06-11T15:12:15.442Z,12.67
2018-06-11T15:14:43.627Z,12.97
2018-06-11T15:17:11.789Z,12.20
2018-06-11T15:19:39.950Z,14.90
2018-06-11T15:22:08.111Z,13.90
2018-06-11T15:24:36.354Z,14.40
2018-06-11T15:27:04.246Z,23.70
2018-06-11T15:29:32.482Z,62.77
2018-06-11T15:32:00.700Z,15.80
2018-06-11T15:34:28.899Z,15.37
2018-06-11T15:36:57.096Z,15.60
2018-06-11T15:39:25.355Z,16.97
2018-06-11T15:41:53.578Z,15.53
2018-06-11T15:44:21.758Z,18.17
2018-06-11T15:46:49.952Z,14.37
2018-06-11T15:49:18.156Z,18.13
2018-06-11T15:51:46.292Z,16.20
2018-06-11T15:54:14.231Z,15.67
2018-06-11T15:56:42.441Z,17.57
2018-06-11T15:59:10.565Z,14.87
2018-06-11T16:01:38.811Z,14.60
2018-06-11T16:04:06.992Z,17.90
2018-06-11T16:06:35.188Z,17.00
2018-06-11T16:09:03.993Z,19.97
2018-06-11T16:11:32.253Z,16.07
2018-06-11T16:14:00.486Z,16.23
2018-06-11T16:16:28.463Z,21.90
2018-06-11T16:18:56.739Z,19.20
2018-06-11T16:21:24.917Z,19.70
2018-06-11T16:23:53.063Z,19.00
2018-06-11T16:26:21.231Z,19.03
2018-06-11T16:28:49.404Z,16.67
2018-06-11T16:31:17.553Z,19.73
2018-06-11T16:33:45.735Z,19.73
2018-06-11T16:36:13.876Z,20.97
2018-06-11T16:38:42.106Z,20.13
2018-06-11T16:41:10.260Z,20.17
2018-06-11T16:43:38.484Z,18.97
2018-06-11T16:46:06.656Z,19.67
2018-06-11T16:48:34.850Z,20.00
2018-06-11T16:51:02.988Z,18.93
2018-06-11T16:53:31.171Z,19.17
2018-06-11T16:55:59.480Z,43.63
2018-06-11T16:58:27.684Z,22.53
2018-06-11T17:00:55.951Z,18.47
2018-06-11T17:03:24.112Z,20.10
2018-06-11T17:05:52.330Z,18.90
2018-06-11T17:08:20.467Z,18.83
2018-06-11T17:10:48.660Z,25.03
2018-06-11T17:13:16.796Z,16.73
2018-06-11T17:15:45.122Z,20.33
2018-06-11T17:18:13.267Z,19.97
2018-06-11T17:20:41.495Z,20.47
2018-06-11T17:23:09.753Z,19.13
2018-06-11T17:25:38.016Z,18.30
2018-06-11T17:28:06.339Z,17.73
2018-06-11T17:30:34.487Z,20.17
2018-06-11T17:33:02.678Z,16.60
2018-06-11T17:35:30.912Z,17.67
2018-06-11T17:37:59.194Z,19.23
2018-06-11T17:40:27.615Z,18.23
2018-06-11T17:42:55.820Z,19.80
2018-06-11T17:45:23.988Z,19.00
2018-06-11T17:47:52.160Z,16.67
2018-06-11T17:50:20.343Z,16.60
2018-06-11T17:52:48.634Z,18.90
2018-06-11T17:55:16.929Z,16.87
2018-06-11T17:57:45.226Z,19.37
2018-06-11T18:00:13.348Z,29.07
2018-06-11T18:02:41.553Z,23.97
2018-06-11T18:05:09.697Z,18.30
2018-06-11T18:07:37.875Z,32.00
2018-06-11T18:10:06.044Z,20.00
2018-06-11T18:12:34.212Z,17.30
2018-06-11T18:15:02.397Z,18.03
2018-06-11T18:17:30.617Z,18.37
2018-06-11T18:19:58.761Z,18.07
2018-06-11T18:22:26.996Z,16.60
2018-06-11T18:24:55.137Z,17.37
2018-06-11T18:27:23.340Z,17.10
2018-06-11T18:29:51.627Z,16.60
2018-06-11T18:32:19.814Z,17.33
2018-06-11T18:34:48.009Z,20.07
2018-06-11T18:37:16.163Z,18.27
2018-06-11T18:39:44.319Z,17.73
2018-06-11T18:42:12.487Z,17.17
2018-06-11T18:44:40.666Z,16.80
2018-06-11T18:47:08.852Z,16.63
2018-06-11T18:49:37.023Z,35.00
2018-06-11T18:52:05.226Z,20.57
2018-06-11T18:54:33.396Z,27.17
2018-06-11T18:57:01.647Z,20.03
2018-06-11T18:59:29.975Z,15.23
2018-06-11T19:01:58.171Z,15.07
2018-06-11T19:04:26.356Z,14.90
2018-06-11T19:06:54.613Z,15.70
2018-06-11T19:09:22.848Z,16.10
2018-06-11T19:11:51.004Z,16.50
2018-06-11T19:14:19.176Z,17.67
2018-06-11T19:16:47.476Z,16.63
2018-06-11T19:19:15.652Z,16.90
2018-06-11T19:21:43.799Z,15.27
2018-06-11T19:24:12.011Z,16.13
2018-06-11T19:26:40.121Z,17.07
2018-06-11T19:29:08.289Z,16.27
2018-06-11T19:31:36.491Z,15.37
2018-06-11T19:34:04.664Z,23.33
2018-06-11T19:36:32.813Z,36.47
2018-06-11T19:39:01.808Z,14.40
2018-06-11T19:41:29.985Z,15.03
2018-06-11T19:43:58.235Z,15.10
2018-06-11T19:46:26.442Z,12.40
2018-06-11T19:48:54.622Z,12.83
2018-06-11T19:51:22.825Z,14.87
2018-06-11T19:53:51.004Z,13.63
2018-06-11T19:56:19.232Z,13.70
2018-06-11T19:58:47.434Z,12.60
2018-06-11T20:01:15.572Z,12.40
2018-06-11T20:03:43.850Z,12.70
2018-06-11T20:06:11.995Z,13.03
2018-06-11T20:08:40.178Z,12.63
2018-06-11T20:11:08.329Z,11.13
2018-06-11T20:13:36.502Z,12.03
2018-06-11T20:16:04.676Z,11.20
2018-06-11T20:18:32.849Z,9.10
2018-06-11T20:21:01.060Z,7.93
2018-06-11T20:23:29.232Z,10.33
2018-06-11T20:25:57.473Z,9.40
2018-06-11T20:28:25.648Z,9.53
2018-06-11T20:30:53.794Z,9.90
2018-06-11T20:33:21.947Z,9.73
2018-06-11T20:35:50.142Z,9.20
2018-06-11T20:38:18.299Z,6.87
2018-06-11T20:40:46.471Z,9.60
2018-06-11T20:43:14.647Z,8.90
2018-06-11T20:45:42.797Z,8.97
2018-06-11T20:48:10.930Z,8.10
2018-06-11T20:50:39.549Z,8.70
2018-06-11T20:53:07.756Z,10.07
2018-06-11T20:55:35.920Z,18.87
2018-06-11T20:58:04.124Z,14.70
2018-06-11T21:00:32.304Z,8.33
2018-06-11T21:03:00.474Z,8.20
2018-06-11T21:05:28.636Z,7.97
2018-06-11T21:07:56.821Z,7.70
2018-06-11T21:10:25.187Z,7.60
2018-06-11T21:12:53.378Z,9.43
2018-06-11T21:15:21.560Z,7.20
2018-06-11T21:17:49.727Z,7.80
2018-06-11T21:20:17.902Z,8.40
2018-06-11T21:22:46.050Z,8.33
2018-06-11T21:25:14.189Z,7.60
2018-06-11T21:27:42.340Z,7.17
2018-06-11T21:30:10.513Z,7.97
2018-06-11T21:32:38.669Z,8.30
2018-06-11T21:35:06.863Z,8.17
2018-06-11T21:37:35.043Z,7.77
2018-06-11T21:40:03.200Z,7.70
2018-06-11T21:42:31.370Z,7.70
2018-06-11T21:44:59.692Z,7.23
2018-06-11T21:47:27.887Z,8.23
2018-06-11T21:49:56.036Z,7.40
2018-06-11T21:52:24.168Z,8.07
2018-06-11T21:54:52.381Z,11.37
2018-06-11T21:57:20.533Z,8.00
2018-06-11T21:59:48.695Z,7.33
2018-06-11T22:02:16.870Z,7.00
2018-06-11T22:04:45.080Z,8.00
2018-06-11T22:07:13.579Z,5.73
2018-06-11T22:09:41.744Z,7.17
2018-06-11T22:12:09.949Z,7.40
2018-06-11T22:14:38.096Z,7.27
2018-06-11T22:17:06.236Z,6.70
2018-06-11T22:19:34.396Z,8.27
2018-06-11T22:22:02.544Z,8.57
2018-06-11T22:24:30.684Z,7.87
2018-06-11T22:26:58.843Z,7.37
2018-06-11T22:29:27.031Z,7.73
2018-06-11T22:31:55.161Z,6.80
2018-06-11T22:34:23.328Z,6.87
2018-06-11T22:36:51.475Z,7.40
2018-06-11T22:39:19.647Z,7.20
2018-06-11T22:41:47.781Z,7.63
2018-06-11T22:44:15.953Z,8.30
2018-06-11T22:46:44.108Z,8.93
2018-06-11T22:49:12.275Z,7.87
2018-06-11T22:51:40.440Z,7.60
2018-06-11T22:54:08.583Z,6.67
2018-06-11T22:56:36.752Z,7.37
2018-06-11T22:59:04.964Z,8.27
2018-06-11T23:01:33.115Z,8.57
2018-06-11T23:04:01.276Z,7.93
2018-06-11T23:06:29.485Z,8.80
2018-06-11T23:08:57.650Z,8.00
2018-06-11T23:11:25.820Z,7.83
2018-06-11T23:13:53.966Z,7.03
2018-06-11T23:30:35.512Z,6.97
2018-06-11T23:33:03.670Z,7.53
2018-06-11T23:35:31.827Z,6.33
2018-06-11T23:37:59.984Z,6.80
2018-06-11T23:40:28.207Z,8.20
2018-06-11T23:42:56.374Z,6.53
2018-06-11T23:45:24.629Z,6.90
2018-06-11T23:47:52.780Z,6.90
2018-06-11T23:50:21.005Z,7.70
2018-06-11T23:52:49.165Z,6.57
2018-06-11T23:55:17.366Z,7.80
2018-06-11T23:57:45.567Z,6.27
